Time;durP1;ratioP1;P1;durP2;ratioP2;P2;SDS_P1;SDS_P2;PMS_P1;PMS_P2;Temp;Humidity;BMP_temperature;BMP_pressure;BME280_temperature;BME280_humidity;BME280_pressure;Samples;Min_cycle;Max_cycle;Signal;HPM_P1;HPM_P2
2023/06/17 00:02:21;;;;;;;4.80;3.78;;;13.40;99.90;;;;;;4942967;29;20445;-80
2023/06/17 00:04:48;;;;;;;4.72;4.00;;;13.50;99.90;;;;;;4926619;29;20031;-81
2023/06/17 00:07:15;;;;;;;4.38;3.92;;;;;;;;;;4945034;29;20192;-81
2023/06/17 00:09:44;;;;;;;4.68;4.13;;;13.50;99.90;;;;;;4937655;29;20039;-79
2023/06/17 00:12:24;;;;;;;6.72;3.85;;;;;;;;;;4934264;29;20067;-81
2023/06/17 00:14:57;;;;;;;7.75;3.97;;;;;;;;;;4954476;29;20020;-82
2023/06/17 00:20:11;;;;;;;10.52;3.72;;;;;;;;;;5117058;23;20056;-81
2023/06/17 00:22:39;;;;;;;;;;;13.30;99.90;;;;;;4950123;29;20036;-81
2023/06/17 01:34:53;;;;;;;6.43;4.28;;;;;;;;;;6039534;23;20030;-80
2023/06/17 04:57:53;;;;;;;6.35;3.78;;;;;;;;;;4935064;29;20059;-86
2023/06/17 05:00:29;;;;;;;5.32;3.45;;;14.00;99.90;;;;;;4916554;29;20036;-85
2023/06/17 05:02:55;;;;;;;9.80;4.72;;;;;;;;;;4898037;29;20047;-86
2023/06/17 05:05:21;;;;;;;4.60;3.60;;;14.00;99.90;;;;;;4917340;29;20038;-86
2023/06/17 05:08:52;;;;;;;4.15;3.47;;;13.90;99.90;;;;;;4931404;29;20051;-81
2023/06/17 05:28:57;;;;;;;4.10;3.70;;;14.20;99.90;;;;;;4936988;29;20047;-80
2023/06/17 05:31:40;;;;;;;5.13;4.43;;;14.50;99.90;;;;;;4937914;29;20040;-80
2023/06/17 05:34:06;;;;;;;4.72;3.92;;;;;;;;;;4931236;29;20029;-85
2023/06/17 05:36:33;;;;;;;7.30;4.07;;;14.70;99.90;;;;;;4916667;29;20041;-83
2023/06/17 05:38:59;;;;;;;6.53;4.47;;;;;;;;;;4897009;29;20021;-85
2023/06/17 05:41:25;;;;;;;5.82;3.97;;;15.10;99.90;;;;;;4907882;29;20032;-86
2023/06/17 05:43:52;;;;;;;5.35;4.18;;;;;;;;;;4922381;29;20024;-87
2023/06/17 05:46:18;;;;;;;5.25;4.07;;;15.50;99.90;;;;;;4943554;29;20043;-85
2023/06/17 05:48:43;;;;;;;9.25;3.63;;;15.70;99.90;;;;;;4921627;29;20056;-85
2023/06/17 05:51:09;;;;;;;8.23;4.88;;;15.90;99.90;;;;;;4917730;29;20054;-86
2023/06/17 05:53:35;;;;;;;4.40;3.83;;;16.10;99.90;;;;;;4900526;29;20035;-87
2023/06/17 05:56:00;;;;;;;5.55;4.13;;;16.40;99.90;;;;;;4917672;29;20642;-88
2023/06/17 05:58:26;;;;;;;6.63;4.75;;;16.50;99.90;;;;;;4916525;29;20627;-85
2023/06/17 06:00:52;;;;;;;8.10;4.63;;;16.70;99.90;;;;;;4935899;29;20495;-85
2023/06/17 06:03:17;;;;;;;6.93;4.15;;;17.10;99.90;;;;;;4932188;29;20024;-84
2023/06/17 06:05:43;;;;;;;7.47;5.38;;;17.10;99.90;;;;;;4915633;29;20027;-88
2023/06/17 06:08:09;;;;;;;6.00;3.85;;;17.60;99.90;;;;;;4947953;29;20083;-82
2023/06/17 06:10:35;;;;;;;4.38;3.97;;;17.80;99.90;;;;;;4920906;29;20020;-79
2023/06/17 06:13:01;;;;;;;7.10;4.30;;;;;;;;;;4914292;29;20087;-80
2023/06/17 06:15:26;;;;;;;6.15;4.32;;;18.00;99.90;;;;;;4930935;29;20024;-80
2023/06/17 06:17:53;;;;;;;5.43;4.10;;;18.10;99.90;;;;;;4914871;29;20126;-80
2023/06/17 06:20:18;;;;;;;4.95;4.47;;;18.50;99.90;;;;;;4915502;29;20481;-81
2023/06/17 06:22:44;;;;;;;4.88;4.38;;;18.60;99.90;;;;;;4931265;29;20113;-81
2023/06/17 06:25:10;;;;;;;6.45;4.07;;;18.70;99.90;;;;;;4908629;29;20536;-79
2023/06/17 06:27:36;;;;;;;7.18;4.13;;;18.80;99.90;;;;;;4911814;29;20026;-80
2023/06/17 06:30:01;;;;;;;4.82;4.20;;;18.70;99.90;;;;;;4915745;29;20039;-79
2023/06/17 06:32:27;;;;;;;6.45;4.32;;;18.70;99.90;;;;;;4915466;29;20396;-80
2023/06/17 06:34:53;;;;;;;7.97;4.35;;;18.80;99.90;;;;;;4915379;29;20032;-80
2023/06/17 06:37:18;;;;;;;8.55;4.82;;;18.80;99.90;;;;;;4915179;29;20036;-81
2023/06/17 06:39:44;;;;;;;5.55;4.65;;;19.40;99.90;;;;;;4916511;29;20040;-81
2023/06/17 06:42:11;;;;;;;6.95;5.03;;;19.40;99.90;;;;;;4915483;29;20032;-80
2023/06/17 06:44:36;;;;;;;6.80;4.45;;;21.10;98.50;;;;;;4915693;29;20293;-80
2023/06/17 06:47:02;;;;;;;6.50;4.82;;;21.30;98.60;;;;;;4916865;29;20194;-79
2023/06/17 06:49:28;;;;;;;9.75;5.20;;;22.30;93.80;;;;;;4916276;29;20031;-78
2023/06/17 06:51:53;;;;;;;7.90;4.95;;;23.00;90.20;;;;;;4926497;29;20066;-78
2023/06/17 06:54:19;;;;;;;7.88;5.22;;;23.90;87.20;;;;;;4928873;29;20019;-78
2023/06/17 06:56:45;;;;;;;4.65;4.00;;;24.70;81.20;;;;;;4945259;29;20075;-78
2023/06/17 06:59:10;;;;;;;4.82;3.85;;;24.90;76.10;;;;;;4923069;29;20058;-79
2023/06/17 07:01:36;;;;;;;6.82;4.25;;;24.60;76.30;;;;;;4932524;29;20032;-78
2023/06/17 07:04:01;;;;;;;14.23;4.10;;;24.70;76.00;;;;;;4931544;29;20437;-78
2023/06/17 07:06:27;;;;;;;4.97;3.75;;;24.70;74.20;;;;;;4933581;29;20378;-78
2023/06/17 07:08:53;;;;;;;5.68;3.65;;;25.20;72.80;;;;;;4934372;29;20055;-79
2023/06/17 07:11:18;;;;;;;8.55;4.10;;;25.80;70.50;;;;;;4932390;29;20095;-77
2023/06/17 07:13:44;;;;;;;4.70;4.18;;;26.20;69.60;;;;;;4934210;29;20027;-77
2023/06/17 07:16:10;;;;;;;4.43;3.88;;;27.00;68.60;;;;;;4933254;29;20039;-79
2023/06/17 07:18:35;;;;;;;6.05;3.35;;;27.40;66.10;;;;;;4934162;29;20031;-82
2023/06/17 07:21:01;;;;;;;6.60;3.70;;;27.50;65.30;;;;;;4938222;29;20441;-79
2023/06/17 07:23:27;;;;;;;5.97;4.00;;;27.20;62.80;;;;;;4937431;29;20037;-80
2023/06/17 07:25:52;;;;;;;5.10;3.58;;;27.00;62.10;;;;;;4957978;29;20403;-79
2023/06/17 07:28:18;;;;;;;3.88;3.58;;;27.10;62.90;;;;;;4958409;29;20027;-77
2023/06/17 07:30:44;;;;;;;8.73;4.63;;;27.40;62.50;;;;;;4956031;29;20024;-78
2023/06/17 07:33:10;;;;;;;6.43;3.83;;;27.90;61.20;;;;;;4958590;29;20239;-76
2023/06/17 07:35:35;;;;;;;6.20;4.05;;;27.80;61.80;;;;;;4961269;29;20031;-76
2023/06/17 07:38:01;;;;;;;4.95;4.13;;;27.40;61.00;;;;;;4929444;29;20548;-80
2023/06/17 07:40:27;;;;;;;7.97;4.22;;;27.20;62.90;;;;;;4914632;29;20088;-79
2023/06/17 07:42:52;;;;;;;5.88;4.18;;;27.40;60.70;;;;;;4932051;29;20038;-79
2023/06/17 07:45:18;;;;;;;5.05;3.80;;;27.20;62.00;;;;;;4932031;29;20019;-80
2023/06/17 07:47:43;;;;;;;6.38;3.83;;;27.00;60.60;;;;;;4932527;29;20039;-81
2023/06/17 07:50:09;;;;;;;4.97;3.72;;;26.90;61.20;;;;;;4915693;29;20170;-79
2023/06/17 07:52:35;;;;;;;8.73;4.57;;;27.10;62.00;;;;;;4916414;29;20028;-77
2023/06/17 07:55:05;;;;;;;5.40;4.03;;;27.90;62.00;;;;;;4915471;29;20552;-77
2023/06/17 07:57:31;;;;;;;4.25;3.90;;;28.10;59.00;;;;;;4915078;29;20036;-77
2023/06/17 07:59:57;;;;;;;4.60;4.15;;;28.30;58.70;;;;;;4915422;29;20030;-79
2023/06/17 08:02:23;;;;;;;4.65;4.20;;;;;;;;;;4916187;29;20190;-79
2023/06/17 08:04:49;;;;;;;6.18;4.30;;;29.20;58.90;;;;;;4936144;29;20032;-77
2023/06/17 08:07:15;;;;;;;5.70;3.90;;;29.40;57.80;;;;;;4927640;29;20035;-77
2023/06/17 08:09:41;;;;;;;5.10;4.25;;;28.80;56.20;;;;;;4922056;29;20016;-77
2023/06/17 08:12:07;;;;;;;6.78;4.07;;;28.80;56.70;;;;;;4934031;29;20038;-77
2023/06/17 08:14:33;;;;;;;5.65;4.28;;;28.90;57.40;;;;;;4918138;29;20055;-81
2023/06/17 08:16:58;;;;;;;6.75;4.32;;;29.00;57.10;;;;;;4940186;29;20040;-81
2023/06/17 08:19:24;;;;;;;5.78;4.45;;;29.20;54.90;;;;;;4941371;29;20455;-78
2023/06/17 08:21:50;;;;;;;6.93;4.10;;;29.70;55.30;;;;;;4916833;29;20559;-78
2023/06/17 08:24:26;;;;;;;8.18;4.55;;;29.80;54.10;;;;;;4930661;29;20035;-79
2023/06/17 08:26:53;;;;;;;9.90;3.95;;;29.40;55.30;;;;;;4931570;29;20063;-77
2023/06/17 08:29:20;;;;;;;4.53;4.10;;;29.40;55.90;;;;;;4931840;29;20102;-78
2023/06/17 08:31:47;;;;;;;3.92;3.63;;;29.50;53.90;;;;;;4932108;29;20032;-77
2023/06/17 08:34:14;;;;;;;6.38;4.07;;;29.40;55.90;;;;;;4915093;29;20031;-78
2023/06/17 08:36:42;;;;;;;9.05;4.75;;;29.20;53.60;;;;;;4916240;29;20076;-77
2023/06/17 08:39:08;;;;;;;5.50;4.40;;;29.10;54.10;;;;;;4916112;29;20032;-79
2023/06/17 08:41:41;;;;;;;5.43;3.90;;;28.60;53.60;;;;;;4932815;29;20286;-80
2023/06/17 08:44:08;;;;;;;4.82;4.18;;;28.60;53.90;;;;;;4931757;29;20031;-79
2023/06/17 08:46:34;;;;;;;6.93;4.57;;;27.30;55.10;;;;;;4915737;29;20042;-79
2023/06/17 08:49:02;;;;;;;5.88;4.72;;;27.20;55.60;;;;;;4915845;29;20024;-79
2023/06/17 08:51:28;;;;;;;5.82;4.45;;;27.60;53.80;;;;;;4915864;29;20028;-78
2023/06/17 08:53:55;;;;;;;7.70;3.85;;;27.60;54.70;;;;;;4933056;29;20478;-78
2023/06/17 08:56:21;;;;;;;6.10;3.38;;;28.00;53.70;;;;;;4915633;29;20484;-77
2023/06/17 08:58:47;;;;;;;4.32;3.85;;;28.70;54.50;;;;;;4933056;29;20082;-76
2023/06/17 09:01:14;;;;;;;9.80;4.13;;;30.00;51.90;;;;;;4932929;29;20020;-78
2023/06/17 09:03:43;;;;;;;4.82;4.22;;;29.90;52.30;;;;;;4931953;29;20036;-77
2023/06/17 09:06:29;;;;;;;10.38;4.43;;;30.30;52.70;;;;;;4915682;29;20020;-77
2023/06/17 09:08:57;;;;;;;5.68;4.28;;;29.90;51.30;;;;;;4915842;29;20035;-76
2023/06/17 09:11:27;;;;;;;5.72;3.95;;;29.30;51.60;;;;;;4932706;29;20082;-77
2023/06/17 09:13:54;;;;;;;4.13;3.72;;;29.60;52.20;;;;;;4933119;29;20416;-76
2023/06/17 09:16:27;;;;;;;9.80;4.32;;;29.30;51.40;;;;;;4932834;29;20114;-76
2023/06/17 09:18:57;;;;;;;5.60;3.90;;;29.00;51.30;;;;;;4932528;29;20030;-78
2023/06/17 09:21:25;;;;;;;4.97;3.70;;;28.50;51.20;;;;;;4915452;29;20035;-76
2023/06/17 09:24:02;;;;;;;10.15;5.78;;;28.60;51.50;;;;;;4932510;29;20055;-76
2023/06/17 09:26:38;;;;;;;9.82;4.32;;;28.80;53.70;;;;;;4932149;29;20047;-76
2023/06/17 09:29:06;;;;;;;4.75;3.80;;;29.50;52.00;;;;;;4915552;29;20543;-76
2023/06/17 09:31:45;;;;;;;5.25;3.53;;;29.60;49.70;;;;;;4915478;29;20035;-76
2023/06/17 09:34:11;;;;;;;6.45;3.95;;;29.90;52.00;;;;;;4932854;29;20095;-76
2023/06/17 09:36:39;;;;;;;6.05;3.55;;;29.70;50.20;;;;;;4915128;29;20474;-76
2023/06/17 09:39:06;;;;;;;4.90;3.85;;;30.00;52.10;;;;;;4915376;29;20032;-77
2023/06/17 09:41:36;;;;;;;5.05;3.08;;;30.40;49.20;;;;;;4931948;29;20028;-77
2023/06/17 09:44:02;;;;;;;3.60;2.78;;;30.90;48.80;;;;;;4932390;29;20055;-76
2023/06/17 09:46:29;;;;;;;3.55;3.25;;;31.10;46.50;;;;;;4915182;29;20118;-77
2023/06/17 09:48:57;;;;;;;3.50;3.15;;;31.10;47.10;;;;;;4932746;29;20087;-76
2023/06/17 09:51:25;;;;;;;4.13;3.63;;;31.40;47.50;;;;;;4932053;29;20031;-77
2023/06/17 09:53:52;;;;;;;7.10;3.85;;;31.50;48.10;;;;;;4930976;29;20027;-77
2023/06/17 09:56:19;;;;;;;6.68;3.58;;;31.10;47.10;;;;;;4914666;29;20154;-76
2023/06/17 09:58:45;;;;;;;3.55;3.25;;;31.10;47.70;;;;;;4932260;29;20047;-78
2023/06/17 10:01:11;;;;;;;7.40;3.55;;;31.20;47.30;;;;;;4915006;29;20034;-79
2023/06/17 10:03:39;;;;;;;4.78;3.17;;;31.20;48.90;;;;;;4916002;29;20020;-78
2023/06/17 10:06:16;;;;;;;5.93;2.63;;;31.30;45.90;;;;;;4936862;29;20051;-75
2023/06/17 10:08:48;;;;;;;3.65;2.58;;;31.60;45.10;;;;;;4919128;29;20119;-77
2023/06/17 10:11:17;;;;;;;3.70;2.38;;;31.40;45.90;;;;;;4919053;29;20027;-77
2023/06/17 10:13:47;;;;;;;2.00;1.90;;;31.70;44.90;;;;;;4935184;29;20027;-77
2023/06/17 10:16:17;;;;;;;3.83;2.85;;;32.00;43.90;;;;;;4936540;29;20050;-77
2023/06/17 10:18:47;;;;;;;11.90;9.70;;;31.90;43.20;;;;;;4936242;29;20055;-75
2023/06/17 10:21:13;;;;;;;3.05;2.85;;;31.80;44.40;;;;;;4936290;29;20556;-76
2023/06/17 10:23:42;;;;;;;2.97;2.75;;;31.80;42.40;;;;;;4919187;29;20461;-78
2023/06/17 10:26:11;;;;;;;4.10;2.60;;;30.80;42.90;;;;;;4935195;29;20048;-76
2023/06/17 10:28:54;;;;;;;5.38;2.65;;;30.20;42.20;;;;;;4919663;29;20086;-79
2023/06/17 10:31:26;;;;;;;3.58;2.55;;;29.50;44.70;;;;;;4935136;29;20049;-79
2023/06/17 10:33:53;;;;;;;2.67;2.30;;;29.10;43.30;;;;;;4934993;29;20031;-79
2023/06/17 10:36:23;;;;;;;2.50;1.98;;;29.60;44.60;;;;;;4917001;29;20440;-78
2023/06/17 10:38:58;;;;;;;8.05;2.70;;;30.20;43.80;;;;;;4918062;29;20027;-76
2023/06/17 10:41:38;;;;;;;5.93;3.17;;;30.80;44.00;;;;;;4934860;29;20541;-77
2023/06/17 10:44:27;;;;;;;3.28;2.40;;;31.30;42.20;;;;;;4942541;29;20023;-78
2023/06/17 10:46:53;;;;;;;6.15;2.80;;;31.60;43.20;;;;;;4945763;29;20019;-77
2023/06/17 10:49:20;;;;;;;2.33;2.08;;;30.80;41.90;;;;;;4943698;29;20055;-77
2023/06/17 10:51:50;;;;;;;3.17;2.13;;;30.70;43.30;;;;;;4945843;29;20028;-77
2023/06/17 10:54:42;;;;;;;3.15;2.72;;;30.50;43.20;;;;;;4945947;29;20050;-76
2023/06/17 10:57:08;;;;;;;3.13;2.58;;;30.70;44.10;;;;;;4943215;29;20086;-77
2023/06/17 10:59:34;;;;;;;3.55;2.70;;;;;;;;;;4945682;29;20240;-78
2023/06/17 11:02:07;;;;;;;3.30;3.00;;;31.10;42.70;;;;;;4941512;29;20561;-80
2023/06/17 11:04:40;;;;;;;3.15;2.85;;;31.40;42.40;;;;;;4944842;29;20078;-78
2023/06/17 11:07:06;;;;;;;2.70;2.45;;;31.90;41.40;;;;;;4928605;29;20066;-78
2023/06/17 11:09:34;;;;;;;2.80;2.60;;;30.40;42.80;;;;;;4936845;29;20042;-78
2023/06/17 11:12:02;;;;;;;3.47;3.13;;;30.40;43.60;;;;;;4930417;29;20021;-79
2023/06/17 11:14:30;;;;;;;6.57;2.58;;;30.30;44.90;;;;;;4914543;29;20032;-77
2023/06/17 11:16:56;;;;;;;5.60;2.47;;;30.60;43.70;;;;;;4928841;29;20047;-83
2023/06/17 11:19:22;;;;;;;2.67;2.30;;;30.30;42.80;;;;;;4928781;29;20106;-78
2023/06/17 11:22:03;;;;;;;5.28;2.45;;;30.60;43.10;;;;;;4911345;29;20055;-79
2023/06/17 11:24:30;;;;;;;4.20;2.50;;;31.30;43.00;;;;;;4927554;29;20055;-78
2023/06/17 11:26:57;;;;;;;2.72;2.42;;;31.50;42.60;;;;;;4928107;29;20050;-78
2023/06/17 11:29:23;;;;;;;3.08;2.78;;;31.60;43.00;;;;;;4913042;29;20035;-79
2023/06/17 11:31:49;;;;;;;5.55;2.50;;;32.20;44.40;;;;;;4911759;29;20409;-78
2023/06/17 11:34:15;;;;;;;6.88;2.95;;;31.90;43.10;;;;;;4928059;29;20040;-78
2023/06/17 11:36:41;;;;;;;2.88;2.63;;;31.80;43.40;;;;;;4912367;29;20027;-79
2023/06/17 11:39:09;;;;;;;4.65;2.60;;;31.80;43.30;;;;;;4913285;29;20032;-79
2023/06/17 11:41:36;;;;;;;4.43;3.38;;;31.30;42.60;;;;;;4928165;29;20020;-78
2023/06/17 11:44:02;;;;;;;2.55;2.03;;;31.80;42.40;;;;;;4930887;29;20043;-78
2023/06/17 11:46:27;;;;;;;2.90;2.50;;;32.60;43.90;;;;;;4913370;29;20115;-79
2023/06/17 11:48:54;;;;;;;4.95;2.58;;;32.30;43.80;;;;;;4929078;29;20110;-78
2023/06/17 11:51:20;;;;;;;2.78;2.42;;;31.80;42.20;;;;;;4912902;29;20457;-78
2023/06/17 11:53:46;;;;;;;2.53;2.10;;;31.30;43.00;;;;;;4929546;29;20114;-78
2023/06/17 11:56:15;;;;;;;5.07;2.75;;;31.70;43.50;;;;;;4929081;29;20114;-78
2023/06/17 11:58:42;;;;;;;2.70;2.35;;;32.40;42.70;;;;;;4911498;29;20038;-77
2023/06/17 12:01:12;;;;;;;2.60;2.40;;;33.00;42.20;;;;;;4929624;29;20040;-78
2023/06/17 12:03:38;;;;;;;2.67;2.47;;;34.10;39.90;;;;;;4912769;29;20062;-78
2023/06/17 12:06:04;;;;;;;2.47;2.28;;;33.70;40.70;;;;;;4912967;29;20051;-78
2023/06/17 12:08:34;;;;;;;6.72;2.10;;;34.00;41.70;;;;;;4913565;29;20032;-78
2023/06/17 12:11:07;;;;;;;2.40;2.20;;;33.90;39.40;;;;;;4912620;29;20038;-77
2023/06/17 12:13:40;;;;;;;2.70;2.50;;;33.20;42.40;;;;;;4913321;29;20039;-78
2023/06/17 12:16:10;;;;;;;2.45;2.25;;;32.50;41.50;;;;;;4927823;29;20031;-79
2023/06/17 12:18:36;;;;;;;3.05;2.80;;;32.60;42.50;;;;;;4933925;29;20355;-78
2023/06/17 12:21:09;;;;;;;3.00;2.70;;;32.90;41.80;;;;;;4923794;29;20252;-78
2023/06/17 12:23:34;;;;;;;4.90;2.25;;;32.10;41.40;;;;;;4912941;29;20035;-79
2023/06/17 12:26:01;;;;;;;2.65;2.45;;;31.10;41.90;;;;;;4911663;29;20095;-78
2023/06/17 12:28:27;;;;;;;2.85;2.55;;;31.30;42.70;;;;;;4912439;29;20028;-78
2023/06/17 12:30:52;;;;;;;5.43;2.35;;;31.50;42.90;;;;;;4911703;29;20038;-79
2023/06/17 12:33:18;;;;;;;5.32;2.50;;;32.50;42.00;;;;;;4913375;29;20027;-79
2023/06/17 12:35:44;;;;;;;3.75;2.80;;;32.30;41.00;;;;;;4909751;29;20034;-79
2023/06/17 12:38:09;;;;;;;2.90;2.63;;;33.00;41.90;;;;;;4930144;29;20557;-78
2023/06/17 12:40:35;;;;;;;4.20;2.25;;;33.50;40.20;;;;;;4930723;29;20047;-78
2023/06/17 12:43:01;;;;;;;2.80;2.60;;;34.20;40.30;;;;;;4931178;29;20038;-79
2023/06/17 12:45:27;;;;;;;2.72;2.08;;;35.20;40.90;;;;;;4931444;29;20051;-78
2023/06/17 12:47:52;;;;;;;2.45;2.25;;;35.90;40.10;;;;;;4913947;29;20030;-79
2023/06/17 12:50:19;;;;;;;2.53;2.33;;;36.20;39.40;;;;;;4915409;29;20036;-80
2023/06/17 12:52:44;;;;;;;4.70;2.30;;;36.50;40.20;;;;;;4932520;29;20082;-80
2023/06/17 12:55:10;;;;;;;2.97;2.00;;;36.70;38.60;;;;;;4933263;29;20027;-79
2023/06/17 12:57:36;;;;;;;3.30;2.40;;;37.20;41.00;;;;;;4916065;29;20046;-82
2023/06/17 13:00:03;;;;;;;5.50;2.42;;;37.40;41.00;;;;;;4916337;29;20020;-79
2023/06/17 13:02:31;;;;;;;2.45;2.25;;;37.40;37.80;;;;;;4916254;29;20351;-80
2023/06/17 13:04:56;;;;;;;2.50;2.28;;;36.00;37.70;;;;;;4932494;29;20024;-79
2023/06/17 13:07:22;;;;;;;2.53;2.17;;;35.80;39.90;;;;;;4933239;29;20035;-80
2023/06/17 13:09:48;;;;;;;5.95;2.58;;;35.80;37.80;;;;;;4915978;29;20023;-79
2023/06/17 13:12:13;;;;;;;4.38;2.60;;;34.60;38.70;;;;;;4915774;29;20164;-80
2023/06/17 13:14:40;;;;;;;2.92;2.33;;;33.80;38.30;;;;;;4916237;29;20034;-80
2023/06/17 13:17:05;;;;;;;2.45;2.25;;;32.80;40.00;;;;;;4935791;29;20114;-81
2023/06/17 13:19:31;;;;;;;2.53;2.38;;;33.40;39.50;;;;;;4918240;29;20031;-81
2023/06/17 13:21:57;;;;;;;2.20;1.98;;;33.20;39.10;;;;;;4914994;29;20030;-80
2023/06/17 13:24:23;;;;;;;2.88;2.47;;;33.40;39.80;;;;;;4936017;29;20032;-82
2023/06/17 13:26:49;;;;;;;3.95;2.42;;;34.00;40.60;;;;;;4943164;29;20110;-80
2023/06/17 13:29:14;;;;;;;2.80;2.28;;;35.10;40.70;;;;;;4940778;29;20055;-81
2023/06/17 13:31:40;;;;;;;2.38;2.17;;;36.00;39.40;;;;;;4941629;29;20024;-81
2023/06/17 13:34:06;;;;;;;2.40;2.20;;;36.50;38.60;;;;;;4934497;29;20040;-81
2023/06/17 13:36:32;;;;;;;2.50;2.30;;;36.70;38.90;;;;;;4939195;29;20343;-82
2023/06/17 13:38:58;;;;;;;2.60;2.40;;;36.40;37.20;;;;;;4925494;29;20035;-82
2023/06/17 13:41:30;;;;;;;2.03;1.92;;;;;;;;;;4925882;29;20015;-82
2023/06/17 13:43:56;;;;;;;4.22;2.08;;;36.40;37.20;;;;;;4943246;29;20291;-81
2023/06/17 13:46:21;;;;;;;5.25;2.30;;;36.40;38.00;;;;;;4936296;29;20047;-80
2023/06/17 13:48:47;;;;;;;5.68;2.33;;;36.20;36.80;;;;;;4940335;29;20040;-80
2023/06/17 13:51:13;;;;;;;4.18;2.47;;;36.10;36.80;;;;;;4925089;29;20035;-81
2023/06/17 13:53:38;;;;;;;3.45;2.10;;;35.60;36.50;;;;;;4925567;29;20032;-81
2023/06/17 13:56:04;;;;;;;1.88;1.77;;;35.70;38.20;;;;;;4941362;29;20127;-79
2023/06/17 13:58:30;;;;;;;4.05;2.45;;;35.90;37.80;;;;;;4924812;29;20059;-79
2023/06/17 14:00:56;;;;;;;2.25;2.08;;;35.90;38.60;;;;;;4942101;29;20047;-79
2023/06/17 14:03:21;;;;;;;2.95;2.47;;;35.10;37.40;;;;;;4923594;29;20050;-79
2023/06/17 14:05:47;;;;;;;2.60;2.40;;;35.20;37.50;;;;;;4933452;29;20063;-79
2023/06/17 14:08:13;;;;;;;2.10;1.90;;;35.40;38.50;;;;;;4935329;29;20102;-80
2023/06/17 14:10:39;;;;;;;3.35;2.47;;;34.40;38.50;;;;;;4939407;29;20298;-81
2023/06/17 14:13:04;;;;;;;4.10;2.20;;;33.30;39.00;;;;;;4925411;29;20016;-80
2023/06/17 14:15:30;;;;;;;2.70;2.42;;;32.80;40.60;;;;;;4925447;29;20024;-80
2023/06/17 14:17:55;;;;;;;3.25;2.67;;;32.70;41.20;;;;;;4925506;29;20047;-80
2023/06/17 14:20:21;;;;;;;4.95;2.40;;;32.80;38.80;;;;;;4941808;29;20030;-80
2023/06/17 14:22:49;;;;;;;2.40;2.22;;;33.00;40.10;;;;;;4942800;29;20168;-81
2023/06/17 14:25:14;;;;;;;2.58;2.38;;;33.70;39.20;;;;;;4920850;29;20119;-80
2023/06/17 14:27:42;;;;;;;2.55;2.35;;;33.90;39.10;;;;;;4938465;29;20024;-80
2023/06/17 14:30:12;;;;;;;7.05;2.45;;;33.70;38.40;;;;;;4938452;29;20030;-81
2023/06/17 14:32:39;;;;;;;2.20;2.10;;;33.60;38.90;;;;;;4920706;29;20063;-81
2023/06/17 14:35:05;;;;;;;2.70;2.50;;;33.70;39.50;;;;;;4934885;29;20223;-79
2023/06/17 14:37:32;;;;;;;2.28;2.10;;;;;;;;;;4920911;29;20166;-81
2023/06/17 14:39:58;;;;;;;2.25;2.05;;;33.80;37.90;;;;;;4937991;29;20015;-80
2023/06/17 14:42:24;;;;;;;2.75;2.55;;;34.00;38.70;;;;;;4937468;29;20230;-80
2023/06/17 14:44:50;;;;;;;2.47;2.28;;;34.90;38.80;;;;;;4921974;29;20564;-80
2023/06/17 14:47:16;;;;;;;2.45;2.30;;;34.50;38.40;;;;;;4921681;29;20028;-81
2023/06/17 14:49:41;;;;;;;2.88;2.58;;;35.00;37.00;;;;;;4937447;29;20039;-80
2023/06/17 14:52:07;;;;;;;2.17;2.00;;;;;;;;;;4925200;29;20031;-81
2023/06/17 14:54:33;;;;;;;2.83;2.63;;;34.90;36.70;;;;;;4941486;29;20232;-80
2023/06/17 14:56:59;;;;;;;2.65;2.42;;;34.90;38.40;;;;;;4923686;29;20515;-81
2023/06/17 14:59:25;;;;;;;2.50;2.25;;;34.50;38.90;;;;;;4930803;29;20027;-80
2023/06/17 15:01:51;;;;;;;5.57;2.10;;;34.20;37.60;;;;;;4915589;29;20387;-82
2023/06/17 15:04:18;;;;;;;2.25;2.05;;;34.60;38.50;;;;;;4933860;29;20095;-79
2023/06/17 15:06:44;;;;;;;4.00;2.45;;;35.00;38.10;;;;;;4917637;29;20039;-79
2023/06/17 15:09:29;;;;;;;2.72;2.53;;;35.20;38.10;;;;;;4922135;29;20023;-79
2023/06/17 15:12:00;;;;;;;3.45;2.47;;;34.40;38.30;;;;;;4937901;29;20145;-79
2023/06/17 15:14:28;;;;;;;2.85;2.65;;;34.30;39.30;;;;;;4942256;29;20239;-79
2023/06/17 15:16:54;;;;;;;2.40;2.30;;;33.80;38.70;;;;;;4945276;29;20338;-80
2023/06/17 15:19:20;;;;;;;2.13;2.03;;;34.50;38.60;;;;;;4945170;29;20032;-80
2023/06/17 15:21:46;;;;;;;2.60;2.40;;;35.10;37.90;;;;;;4943920;29;20074;-76
2023/06/17 15:24:12;;;;;;;2.97;2.60;;;35.20;38.10;;;;;;4928077;29;20055;-77
2023/06/17 15:26:38;;;;;;;2.53;2.33;;;35.70;38.40;;;;;;4944721;29;20217;-78
2023/06/17 15:29:05;;;;;;;2.53;2.33;;;36.10;37.40;;;;;;4925297;29;20343;-80
2023/06/17 15:31:34;;;;;;;2.40;2.20;;;35.90;37.40;;;;;;4927636;29;20347;-79
2023/06/17 15:34:00;;;;;;;2.55;2.35;;;34.50;38.20;;;;;;4944225;29;20131;-79
2023/06/17 15:36:30;;;;;;;3.90;2.70;;;34.20;41.00;;;;;;4918077;29;20083;-80
2023/06/17 15:39:13;;;;;;;2.30;2.10;;;33.80;38.50;;;;;;4912215;29;20489;-79
2023/06/17 15:41:39;;;;;;;5.55;2.45;;;33.30;39.30;;;;;;4910845;29;20031;-79
2023/06/17 15:44:04;;;;;;;2.72;2.53;;;33.30;41.00;;;;;;4930228;29;20121;-79
2023/06/17 15:46:31;;;;;;;4.50;2.60;;;33.50;40.80;;;;;;4913043;29;20031;-79
2023/06/17 15:48:56;;;;;;;2.50;2.30;;;33.20;40.90;;;;;;4915468;29;20046;-79
2023/06/17 15:51:22;;;;;;;4.53;2.67;;;33.70;39.00;;;;;;4921211;29;20508;-79
2023/06/17 15:53:48;;;;;;;2.20;2.00;;;34.40;39.30;;;;;;4932823;29;20401;-77
2023/06/17 15:56:14;;;;;;;2.65;2.45;;;34.60;41.70;;;;;;4914168;29;20051;-77
2023/06/17 15:58:40;;;;;;;2.20;2.10;;;35.10;39.90;;;;;;4913665;29;20034;-80
2023/06/17 16:01:05;;;;;;;3.45;2.47;;;35.10;38.20;;;;;;4929055;29;20413;-80
2023/06/17 16:03:32;;;;;;;2.60;2.40;;;34.70;38.30;;;;;;4911714;29;20028;-77
2023/06/17 16:05:58;;;;;;;2.38;2.22;;;34.50;40.10;;;;;;4911602;29;20024;-77
2023/06/17 16:08:25;;;;;;;2.63;2.28;;;34.10;39.30;;;;;;4913328;29;20445;-80
2023/06/17 16:10:51;;;;;;;4.15;2.30;;;34.20;38.70;;;;;;4930486;29;20032;-80
2023/06/17 16:13:17;;;;;;;3.08;2.33;;;34.10;40.20;;;;;;4914557;29;20039;-78
2023/06/17 16:15:43;;;;;;;5.28;2.63;;;34.30;40.10;;;;;;4932948;29;20056;-80
2023/06/17 16:18:08;;;;;;;4.80;2.83;;;33.40;39.50;;;;;;4915197;29;20561;-79
2023/06/17 16:20:34;;;;;;;2.22;2.10;;;32.80;40.40;;;;;;4914378;29;20027;-80
2023/06/17 16:23:00;;;;;;;2.47;2.28;;;32.70;41.00;;;;;;4931682;29;20031;-80
2023/06/17 16:25:26;;;;;;;3.15;2.67;;;;;;;;;;4930507;29;20067;-79
2023/06/17 16:27:51;;;;;;;3.30;1.92;;;;;;;;;;4930092;29;20086;-81
2023/06/17 16:30:19;;;;;;;2.65;2.45;;;32.00;40.70;;;;;;4915668;29;20075;-76
2023/06/17 16:32:45;;;;;;;2.90;2.22;;;32.40;39.90;;;;;;4933307;29;20024;-77
2023/06/17 16:35:10;;;;;;;2.53;2.33;;;33.00;40.70;;;;;;4916410;29;20540;-78
2023/06/17 16:37:36;;;;;;;2.72;2.10;;;33.20;40.50;;;;;;4932437;29;20151;-77
2023/06/17 16:40:02;;;;;;;2.75;2.47;;;33.10;40.00;;;;;;4933421;29;20055;-76
2023/06/17 16:42:32;;;;;;;2.40;2.10;;;32.70;39.70;;;;;;4915748;29;20459;-79
2023/06/17 16:45:02;;;;;;;2.45;2.25;;;32.30;40.50;;;;;;4915551;29;20030;-78
2023/06/17 16:47:29;;;;;;;2.13;2.03;;;32.30;41.20;;;;;;4916259;29;20098;-78
2023/06/17 16:49:57;;;;;;;2.47;2.25;;;32.40;41.80;;;;;;4916164;29;20091;-77
2023/06/17 16:52:25;;;;;;;5.00;2.30;;;32.60;42.80;;;;;;4916242;29;20035;-78
2023/06/17 16:54:51;;;;;;;2.47;2.28;;;;;;;;;;4916230;29;20028;-78
2023/06/17 16:57:17;;;;;;;2.33;2.15;;;31.90;40.30;;;;;;4931370;29;20039;-79
2023/06/17 16:59:43;;;;;;;2.05;1.95;;;31.90;40.80;;;;;;4915818;29;20441;-78
2023/06/17 17:02:09;;;;;;;2.53;2.33;;;31.80;42.90;;;;;;4933552;29;20473;-80
2023/06/17 17:04:35;;;;;;;2.42;2.22;;;31.70;41.80;;;;;;4932612;29;20110;-79
2023/06/17 17:07:02;;;;;;;2.53;2.13;;;30.90;40.80;;;;;;4915919;29;20028;-79
2023/06/17 17:09:28;;;;;;;5.63;2.47;;;31.20;42.80;;;;;;4932746;29;20031;-77
2023/06/17 17:11:54;;;;;;;2.95;2.30;;;31.10;42.00;;;;;;4916000;29;20032;-81
2023/06/17 17:14:20;;;;;;;3.38;2.10;;;31.00;41.50;;;;;;4916395;29;20078;-79
2023/06/17 17:16:46;;;;;;;4.10;2.90;;;;;;;;;;4933780;29;20496;-79
2023/06/17 17:19:15;;;;;;;4.88;2.33;;;31.30;44.70;;;;;;4915621;29;20023;-84
2023/06/17 17:21:41;;;;;;;2.50;2.05;;;31.50;46.30;;;;;;4916030;29;20028;-82
2023/06/17 17:24:07;;;;;;;4.95;2.50;;;31.40;46.50;;;;;;4933803;29;20027;-81
2023/06/17 17:26:33;;;;;;;4.95;2.10;;;31.40;46.50;;;;;;4920054;29;20429;-81
2023/06/17 17:28:59;;;;;;;2.20;2.08;;;31.50;47.60;;;;;;4941123;29;20043;-80
2023/06/17 17:31:25;;;;;;;4.57;2.53;;;;;;;;;;4916154;29;20529;-79
2023/06/17 17:33:51;;;;;;;2.30;2.10;;;31.50;48.60;;;;;;4916013;29;20042;-81
2023/06/17 17:36:18;;;;;;;2.30;2.20;;;31.30;48.00;;;;;;4916288;29;20115;-80
2023/06/17 17:38:44;;;;;;;4.55;3.22;;;31.00;48.60;;;;;;4916171;29;20039;-83
2023/06/17 17:41:10;;;;;;;3.85;2.45;;;30.80;51.30;;;;;;4914913;29;20043;-80
2023/06/17 17:43:37;;;;;;;3.08;2.47;;;30.50;51.70;;;;;;4915758;29;20028;-81
2023/06/17 17:46:10;;;;;;;8.35;2.42;;;30.50;51.70;;;;;;4915801;29;20070;-81